createdAt,value
2023-05-02T00:01:35.917Z,1.98
2023-05-02T00:04:10.409Z,1.95
2023-05-02T00:06:42.956Z,1.60
2023-05-02T00:09:12.570Z,1.92
2023-05-02T00:14:17.050Z,1.80
2023-05-02T00:16:46.339Z,1.75
2023-05-02T00:19:15.648Z,1.50
2023-05-02T00:21:49.878Z,1.65
2023-05-02T00:24:26.612Z,1.80
2023-05-02T00:26:56.068Z,1.90
2023-05-02T00:29:25.342Z,1.52
2023-05-02T00:32:00.599Z,1.50
2023-05-02T00:34:36.570Z,1.60
2023-05-02T00:37:08.052Z,1.83
2023-05-02T00:39:37.680Z,1.30
2023-05-02T00:42:12.712Z,1.75
2023-05-02T00:44:53.739Z,1.48
2023-05-02T00:47:23.188Z,1.27
2023-05-02T00:49:52.642Z,1.35
2023-05-02T00:52:24.313Z,1.17
2023-05-02T00:54:53.964Z,1.13
2023-05-02T00:57:23.199Z,1.60
2023-05-02T00:59:53.409Z,1.48
2023-05-02T01:02:32.899Z,1.40
2023-05-02T01:08:02.668Z,1.92
2023-05-02T01:10:43.851Z,2.00
2023-05-02T01:13:19.549Z,1.80
2023-05-02T01:15:56.354Z,1.60
2023-05-02T01:18:29.169Z,1.73
2023-05-02T01:21:07.500Z,1.90
2023-05-02T01:23:48.180Z,1.90
2023-05-02T01:29:09.129Z,1.75
2023-05-02T01:31:41.628Z,1.73
2023-05-02T01:34:12.969Z,1.77
2023-05-02T01:36:46.378Z,1.35
2023-05-02T01:39:20.392Z,1.00
2023-05-02T01:42:04.311Z,1.80
2023-05-02T01:44:37.768Z,1.52
2023-05-02T01:49:45.683Z,1.80
2023-05-02T01:52:17.582Z,1.55
2023-05-02T01:57:22.078Z,1.95
2023-05-02T01:59:55.244Z,1.88
2023-05-02T02:02:31.013Z,1.58
2023-05-02T02:05:02.838Z,1.50
2023-05-02T02:07:32.737Z,2.22
2023-05-02T02:10:02.931Z,1.80
2023-05-02T02:12:42.235Z,1.80
2023-05-02T02:15:21.910Z,1.98
2023-05-02T02:18:04.870Z,2.00
2023-05-02T02:20:35.290Z,1.77
2023-05-02T02:23:09.223Z,1.98
2023-05-02T02:25:40.057Z,1.80
2023-05-02T02:28:14.780Z,2.00
2023-05-02T02:30:46.232Z,2.00
2023-05-02T02:33:27.079Z,1.90
2023-05-02T02:36:00.708Z,2.00
2023-05-02T02:38:39.032Z,1.77
2023-05-02T02:41:15.517Z,1.92
2023-05-02T02:43:55.839Z,2.15
2023-05-02T02:46:48.828Z,1.88
2023-05-02T02:49:30.064Z,2.15
2023-05-02T02:52:07.875Z,2.20
2023-05-02T02:54:48.262Z,2.15
2023-05-02T02:57:28.959Z,1.60
2023-05-02T03:00:05.928Z,2.00
2023-05-02T03:02:42.187Z,1.40
2023-05-02T03:05:18.621Z,2.08
2023-05-02T03:07:47.940Z,2.05
2023-05-02T03:10:24.405Z,1.85
2023-05-02T03:12:55.310Z,2.10
2023-05-02T03:18:19.221Z,2.45
2023-05-02T03:20:48.741Z,2.00
2023-05-02T03:23:17.935Z,2.72
2023-05-02T03:31:09.352Z,2.30
2023-05-02T03:33:43.799Z,2.10
2023-05-02T03:36:13.195Z,2.38
2023-05-02T03:38:42.676Z,2.33
2023-05-02T03:41:20.667Z,1.90
2023-05-02T03:43:56.632Z,2.25
2023-05-02T03:49:16.929Z,2.40
2023-05-02T03:51:48.451Z,2.70
2023-05-02T03:54:22.737Z,2.33
2023-05-02T03:56:52.595Z,2.20
2023-05-02T03:59:27.919Z,2.15
2023-05-02T04:01:59.182Z,2.20
2023-05-02T04:04:41.064Z,2.22
2023-05-02T04:07:17.759Z,2.22
2023-05-02T04:10:00.014Z,2.60
2023-05-02T04:12:29.738Z,2.50
2023-05-02T04:15:05.564Z,2.28
2023-05-02T04:17:35.036Z,2.40
2023-05-02T04:20:08.096Z,2.45
2023-05-02T04:22:41.232Z,2.78
2023-05-02T04:27:51.656Z,2.25
2023-05-02T04:30:24.531Z,2.10
2023-05-02T04:33:03.202Z,2.25
2023-05-02T04:35:53.161Z,2.70
2023-05-02T04:38:24.615Z,2.33
2023-05-02T04:40:54.639Z,2.33
2023-05-02T04:43:32.508Z,2.00
2023-05-02T04:46:04.573Z,2.03
2023-05-02T04:48:41.611Z,2.30
2023-05-02T04:51:14.882Z,2.30
2023-05-02T04:53:47.722Z,1.75
2023-05-02T04:56:17.549Z,1.73
2023-05-02T04:58:46.746Z,2.13
2023-05-02T05:01:21.243Z,1.95
2023-05-02T05:03:50.958Z,2.10
2023-05-02T05:06:24.379Z,1.95
2023-05-02T05:08:55.043Z,1.88
2023-05-02T05:11:29.451Z,1.90
2023-05-02T05:14:16.397Z,1.73
2023-05-02T05:16:49.306Z,1.80
2023-05-02T05:19:19.266Z,1.63
2023-05-02T05:21:50.668Z,1.80
2023-05-02T05:24:21.871Z,1.90
2023-05-02T05:26:53.063Z,1.48
2023-05-02T05:29:22.515Z,1.63
2023-05-02T05:31:51.812Z,2.10
2023-05-02T05:34:24.827Z,1.40
2023-05-02T05:36:58.192Z,1.40
2023-05-02T05:39:32.679Z,1.23
2023-05-02T05:42:03.550Z,1.15
2023-05-02T05:44:39.009Z,1.23
2023-05-02T05:47:21.487Z,1.00
2023-05-02T05:49:55.130Z,1.00
2023-05-02T05:52:36.936Z,1.08
2023-05-02T05:55:07.670Z,1.40
2023-05-02T05:57:37.069Z,0.90
2023-05-02T06:00:10.349Z,0.90
2023-05-02T06:02:46.667Z,1.20
2023-05-02T06:05:24.250Z,1.77
2023-05-02T06:07:56.992Z,1.10
2023-05-02T06:13:06.471Z,1.10
2023-05-02T06:15:39.076Z,1.38
2023-05-02T06:18:09.286Z,1.23
2023-05-02T06:20:45.957Z,1.00
2023-05-02T06:23:17.788Z,1.30
2023-05-02T06:28:21.106Z,0.90
2023-05-02T06:30:59.713Z,1.33
2023-05-02T06:33:29.229Z,1.40
2023-05-02T06:35:59.958Z,1.15
2023-05-02T06:38:47.562Z,1.40
2023-05-02T06:41:18.696Z,1.17
2023-05-02T06:43:53.045Z,1.60
2023-05-02T06:46:22.260Z,2.05
2023-05-02T06:48:51.468Z,1.20
2023-05-02T06:51:27.433Z,1.10
2023-05-02T06:53:58.768Z,0.90
2023-05-02T06:56:28.357Z,1.02
2023-05-02T06:59:12.519Z,1.23
2023-05-02T07:01:42.081Z,0.98
2023-05-02T07:04:11.486Z,1.17
2023-05-02T07:06:40.926Z,1.13
2023-05-02T07:09:17.316Z,1.05
2023-05-02T07:11:46.825Z,0.85
2023-05-02T07:14:16.436Z,0.90
2023-05-02T07:16:46.245Z,1.10
2023-05-02T07:19:15.646Z,1.10
2023-05-02T07:21:44.961Z,1.42
2023-05-02T07:24:19.210Z,1.30
2023-05-02T07:26:50.783Z,1.27
2023-05-02T07:29:20.157Z,1.20
2023-05-02T07:31:49.361Z,1.40
2023-05-02T07:34:18.711Z,1.27
2023-05-02T07:36:47.975Z,1.20
2023-05-02T07:39:19.252Z,1.40
2023-05-02T07:41:48.832Z,1.50
2023-05-02T07:44:18.122Z,1.38
2023-05-02T07:46:47.504Z,1.40
2023-05-02T07:49:16.802Z,1.30
2023-05-02T07:51:58.451Z,1.60
2023-05-02T07:54:29.725Z,1.25
2023-05-02T07:57:02.561Z,1.00
2023-05-02T08:02:07.860Z,1.20
2023-05-02T08:04:37.650Z,0.90
2023-05-02T08:09:48.787Z,1.38
2023-05-02T08:12:23.976Z,1.33
2023-05-02T08:14:53.229Z,0.93
2023-05-02T08:17:22.839Z,0.98
2023-05-02T08:20:02.693Z,1.05
2023-05-02T08:22:40.658Z,1.00
2023-05-02T08:25:12.205Z,1.38
2023-05-02T08:27:42.496Z,1.25
2023-05-02T08:30:12.302Z,1.27
2023-05-02T08:32:47.125Z,1.10
2023-05-02T08:37:56.920Z,1.08
2023-05-02T08:40:40.791Z,1.60
2023-05-02T08:43:12.934Z,1.20
2023-05-02T08:45:44.159Z,0.93
2023-05-02T08:48:21.447Z,0.98
2023-05-02T08:50:52.117Z,1.00
2023-05-02T08:53:30.406Z,1.25
2023-05-02T08:56:01.861Z,1.30
2023-05-02T08:58:31.893Z,1.25
2023-05-02T09:01:04.261Z,1.20
2023-05-02T09:03:35.769Z,1.17
2023-05-02T09:06:09.111Z,1.23
2023-05-02T09:08:40.079Z,1.17
2023-05-02T09:11:12.291Z,1.73
2023-05-02T09:13:43.250Z,1.10
2023-05-02T09:16:14.986Z,1.00
2023-05-02T09:18:50.511Z,1.10
2023-05-02T09:21:32.089Z,0.85
2023-05-02T09:24:06.159Z,1.00
2023-05-02T09:26:37.701Z,0.88
2023-05-02T09:29:07.289Z,0.98
2023-05-02T09:34:18.651Z,1.52
2023-05-02T09:36:50.462Z,1.02
2023-05-02T09:39:23.812Z,1.00
2023-05-02T09:42:08.134Z,1.15
2023-05-02T09:44:40.936Z,0.82
2023-05-02T09:47:10.932Z,1.13
2023-05-02T09:49:44.655Z,1.42
2023-05-02T09:52:14.914Z,1.30
2023-05-02T09:54:50.366Z,1.30
2023-05-02T09:57:22.970Z,1.20
2023-05-02T09:59:58.972Z,1.27
2023-05-02T10:02:34.510Z,1.10
2023-05-02T10:05:10.716Z,1.00
2023-05-02T10:07:41.021Z,1.30
2023-05-02T10:10:20.849Z,1.33
2023-05-02T10:12:54.724Z,1.10
2023-05-02T10:15:25.322Z,1.27
2023-05-02T10:17:58.539Z,1.10
2023-05-02T10:20:33.570Z,1.38
2023-05-02T10:23:03.481Z,0.98
2023-05-02T10:25:33.238Z,1.02
2023-05-02T10:28:05.828Z,3.33
2023-05-02T10:30:37.341Z,1.50
2023-05-02T10:33:06.976Z,1.08
2023-05-02T10:35:47.161Z,1.40
2023-05-02T10:38:24.763Z,1.50
2023-05-02T10:43:33.057Z,1.45
2023-05-02T10:46:03.150Z,1.50
2023-05-02T10:48:32.826Z,1.35
2023-05-02T10:51:03.527Z,1.40
2023-05-02T10:53:36.208Z,1.35
2023-05-02T10:56:21.118Z,1.20
2023-05-02T10:58:53.950Z,1.25
2023-05-02T11:04:23.142Z,1.58
2023-05-02T11:07:24.750Z,1.52
2023-05-02T11:09:54.410Z,1.70
2023-05-02T11:12:48.913Z,1.13
2023-05-02T11:15:55.293Z,1.30
2023-05-02T11:18:24.701Z,1.38
2023-05-02T11:20:53.947Z,1.40
2023-05-02T11:23:27.840Z,1.23
2023-05-02T11:26:00.184Z,1.45
2023-05-02T11:28:48.023Z,1.20
2023-05-02T11:31:53.852Z,1.20
2023-05-02T11:34:31.108Z,1.13
2023-05-02T11:37:00.597Z,1.60
2023-05-02T11:39:29.865Z,0.90
2023-05-02T11:42:04.169Z,1.50
2023-05-02T11:44:33.369Z,1.15
2023-05-02T11:47:04.244Z,1.20
2023-05-02T11:49:35.544Z,1.27
2023-05-02T11:52:09.910Z,1.60
2023-05-02T11:54:39.390Z,1.38
2023-05-02T11:57:08.763Z,1.27
2023-05-02T11:59:52.547Z,1.02
2023-05-02T12:02:22.963Z,1.45
2023-05-02T12:04:59.515Z,1.00
2023-05-02T12:07:39.771Z,1.40
2023-05-02T12:10:11.121Z,1.35
2023-05-02T12:12:41.389Z,1.15
2023-05-02T12:15:12.856Z,1.50
2023-05-02T12:17:54.274Z,1.30
2023-05-02T12:20:25.822Z,1.40
2023-05-02T12:22:55.331Z,1.30
2023-05-02T12:25:24.516Z,1.27
2023-05-02T12:28:04.131Z,1.15
2023-05-02T12:30:41.570Z,1.20
2023-05-02T12:33:11.227Z,1.20
2023-05-02T12:35:42.552Z,1.15
2023-05-02T12:38:19.417Z,0.98
2023-05-02T12:40:59.676Z,1.20
2023-05-02T12:43:29.045Z,1.42
2023-05-02T12:52:00.520Z,1.13
2023-05-02T12:54:29.886Z,1.42
2023-05-02T12:56:59.181Z,0.90
2023-05-02T12:59:34.280Z,1.30
2023-05-02T13:02:15.045Z,1.15
2023-05-02T13:04:44.576Z,1.33
2023-05-02T13:07:15.665Z,1.10
2023-05-02T13:09:45.082Z,1.33
2023-05-02T13:12:14.655Z,1.20
2023-05-02T13:14:44.811Z,1.30
2023-05-02T13:17:14.957Z,1.17
2023-05-02T13:19:47.676Z,1.42
2023-05-02T13:22:22.165Z,1.10
2023-05-02T13:24:51.645Z,1.40
2023-05-02T13:27:20.866Z,1.40
2023-05-02T13:29:51.748Z,1.50
2023-05-02T13:32:21.436Z,1.27
2023-05-02T13:34:50.729Z,1.23
2023-05-02T13:37:22.129Z,1.60
2023-05-02T13:39:51.506Z,1.27
2023-05-02T13:42:20.764Z,1.52
2023-05-02T13:44:50.241Z,1.60
2023-05-02T13:47:19.386Z,1.20
2023-05-02T13:49:48.720Z,1.30
2023-05-02T13:52:18.070Z,1.30
2023-05-02T13:54:49.643Z,1.27
2023-05-02T13:59:48.247Z,1.20
2023-05-02T14:02:22.841Z,1.23
2023-05-02T14:04:52.279Z,1.25
2023-05-02T14:07:21.652Z,1.20
2023-05-02T14:09:52.852Z,1.42
2023-05-02T14:12:22.169Z,1.63
2023-05-02T14:14:51.435Z,1.33
2023-05-02T14:17:21.079Z,1.70
2023-05-02T14:19:50.353Z,1.48
2023-05-02T14:22:19.628Z,1.90
2023-05-02T14:24:53.840Z,1.67
2023-05-02T14:27:25.487Z,2.30
2023-05-02T14:29:55.018Z,1.75
2023-05-02T14:32:24.192Z,1.80
2023-05-02T14:34:53.872Z,1.90
2023-05-02T14:37:23.171Z,1.90
2023-05-02T14:39:55.814Z,1.70
2023-05-02T14:42:27.827Z,1.60
2023-05-02T14:44:59.521Z,1.70
2023-05-02T14:47:35.144Z,1.58
2023-05-02T14:50:05.383Z,1.48
2023-05-02T14:52:35.323Z,1.50
2023-05-02T14:55:05.061Z,1.80
2023-05-02T14:57:41.250Z,1.50
2023-05-02T15:00:11.877Z,1.50
2023-05-02T15:02:46.479Z,1.52
2023-05-02T15:05:15.912Z,1.40
2023-05-02T15:07:51.672Z,1.40
2023-05-02T15:10:20.943Z,1.50
2023-05-02T15:12:57.789Z,1.50
2023-05-02T15:15:27.353Z,1.88
2023-05-02T15:17:56.868Z,1.58
2023-05-02T15:20:26.504Z,1.67
2023-05-02T15:22:56.227Z,1.80
2023-05-02T15:25:25.666Z,1.70
2023-05-02T15:28:01.928Z,1.88
2023-05-02T15:30:31.376Z,1.98
2023-05-02T15:33:00.811Z,1.80
2023-05-02T15:35:31.230Z,1.83
2023-05-02T15:38:03.729Z,1.80
2023-05-02T15:40:38.361Z,1.70
2023-05-02T15:43:09.761Z,1.80
2023-05-02T15:45:39.714Z,1.95
2023-05-02T15:48:08.979Z,1.70
2023-05-02T15:50:38.221Z,1.67
2023-05-02T15:53:07.411Z,2.60
2023-05-02T15:55:37.540Z,8.68
2023-05-02T15:58:06.750Z,5.10
2023-05-02T16:00:38.139Z,3.95
2023-05-02T16:03:07.925Z,3.40
2023-05-02T16:05:50.194Z,2.63
2023-05-02T16:08:19.608Z,2.15
2023-05-02T16:10:49.404Z,2.30
2023-05-02T16:13:18.873Z,3.58
2023-05-02T16:15:51.725Z,2.90
2023-05-02T16:18:22.875Z,2.47
2023-05-02T16:20:52.568Z,2.28
2023-05-02T16:23:21.956Z,5.82
2023-05-02T16:25:51.542Z,3.00
2023-05-02T16:28:20.695Z,3.80
2023-05-02T16:31:10.679Z,2.80
2023-05-02T16:33:40.238Z,2.20
2023-05-02T16:36:09.951Z,2.42
2023-05-02T16:38:39.404Z,3.13
2023-05-02T16:41:09.858Z,2.80
2023-05-02T16:43:39.674Z,4.68
2023-05-02T16:46:10.840Z,3.60
2023-05-02T16:48:40.364Z,2.83
2023-05-02T16:51:09.599Z,3.10
2023-05-02T16:53:50.882Z,2.90
2023-05-02T16:56:20.135Z,3.15
2023-05-02T16:58:49.365Z,2.85
2023-05-02T17:01:21.029Z,2.60
2023-05-02T17:03:50.451Z,2.50
2023-05-02T17:06:19.730Z,3.30
2023-05-02T17:08:49.224Z,3.40
2023-05-02T17:11:20.870Z,2.95
2023-05-02T17:13:50.822Z,2.60
2023-05-02T17:16:27.043Z,3.00
2023-05-02T17:18:56.382Z,2.80
2023-05-02T17:21:25.946Z,3.35
2023-05-02T17:26:31.966Z,3.20
2023-05-02T17:29:01.173Z,3.08
2023-05-02T17:31:32.540Z,2.88
2023-05-02T17:34:01.946Z,3.90
2023-05-02T17:36:32.114Z,3.35
2023-05-02T17:39:01.829Z,2.97
2023-05-02T17:41:31.649Z,2.83
2023-05-02T17:44:06.805Z,2.70
2023-05-02T17:46:38.166Z,3.60
2023-05-02T17:49:12.834Z,2.88
2023-05-02T17:51:42.186Z,2.75
2023-05-02T17:54:11.454Z,3.75
2023-05-02T17:56:40.832Z,3.30
2023-05-02T17:59:11.379Z,2.38
2023-05-02T18:01:42.901Z,3.05
2023-05-02T18:06:41.626Z,2.90
2023-05-02T18:09:16.023Z,2.97
2023-05-02T18:11:50.373Z,2.60
2023-05-02T18:14:19.860Z,3.38
2023-05-02T18:16:51.410Z,2.97
2023-05-02T18:19:22.685Z,3.08
2023-05-02T18:21:52.261Z,2.95
2023-05-02T18:24:21.515Z,4.25
2023-05-02T18:29:31.508Z,3.70
2023-05-02T18:32:07.673Z,2.88
2023-05-02T18:34:39.045Z,3.30
2023-05-02T18:37:09.517Z,2.85
2023-05-02T18:39:51.054Z,2.97
2023-05-02T18:42:20.586Z,2.63
2023-05-02T18:44:49.834Z,2.40
2023-05-02T18:47:21.651Z,2.58
2023-05-02T18:52:19.837Z,2.60
2023-05-02T18:54:49.428Z,2.63
2023-05-02T18:57:18.776Z,2.90
2023-05-02T18:59:48.020Z,2.70
2023-05-02T19:02:24.466Z,2.78
2023-05-02T19:04:54.368Z,2.85
2023-05-02T19:07:23.733Z,2.83
2023-05-02T19:09:59.635Z,2.90
2023-05-02T19:12:34.021Z,2.70
2023-05-02T19:15:09.717Z,2.80
2023-05-02T19:17:41.131Z,2.60
2023-05-02T19:20:14.066Z,2.70
2023-05-02T19:22:45.749Z,2.45
2023-05-02T19:25:15.472Z,2.90
2023-05-02T19:27:47.319Z,2.65
2023-05-02T19:30:17.880Z,2.55
2023-05-02T19:32:49.394Z,2.45
2023-05-02T19:35:24.180Z,2.42
2023-05-02T19:37:53.579Z,2.58
2023-05-02T19:40:22.753Z,2.60
2023-05-02T19:42:52.279Z,2.58
2023-05-02T19:45:26.526Z,2.35
2023-05-02T19:47:58.577Z,2.50
2023-05-02T19:50:28.549Z,2.45
2023-05-02T19:52:57.732Z,2.67
2023-05-02T19:55:37.263Z,2.60
2023-05-02T19:58:06.819Z,3.05
2023-05-02T20:00:36.157Z,2.60
2023-05-02T20:03:07.738Z,2.70
2023-05-02T20:05:58.012Z,2.35
2023-05-02T20:08:33.631Z,2.67
2023-05-02T20:11:03.316Z,2.38
2023-05-02T20:13:32.586Z,2.70
2023-05-02T20:16:07.177Z,2.28
2023-05-02T20:18:38.591Z,2.50
2023-05-02T20:21:08.015Z,2.65
2023-05-02T20:23:53.615Z,2.60
2023-05-02T20:26:23.165Z,2.50
2023-05-02T20:28:58.392Z,2.50
2023-05-02T20:31:28.182Z,2.67
2023-05-02T20:34:00.375Z,2.30
2023-05-02T20:36:35.239Z,2.97
2023-05-02T20:39:10.014Z,2.53
2023-05-02T20:41:39.616Z,2.80
2023-05-02T20:44:09.073Z,2.78
2023-05-02T20:46:38.998Z,3.00
2023-05-02T20:49:10.348Z,2.67
2023-05-02T20:51:39.787Z,2.70
2023-05-02T20:54:08.988Z,2.80
2023-05-02T20:56:38.283Z,2.47
2023-05-02T20:59:07.549Z,2.55
2023-05-02T21:01:37.180Z,2.50
2023-05-02T21:04:06.931Z,2.53
2023-05-02T21:06:38.602Z,2.30
2023-05-02T21:11:53.740Z,2.28
2023-05-02T21:14:26.080Z,2.92
2023-05-02T21:16:55.818Z,2.63
2023-05-02T21:19:25.120Z,2.55
2023-05-02T21:22:12.533Z,2.45
2023-05-02T21:24:47.714Z,2.50
2023-05-02T21:27:17.196Z,2.70
2023-05-02T21:29:46.494Z,2.65
2023-05-02T21:32:16.520Z,3.38
2023-05-02T21:34:45.762Z,2.80
2023-05-02T21:37:15.157Z,2.15
2023-05-02T21:39:55.216Z,2.28
2023-05-02T21:42:29.697Z,2.20
2023-05-02T21:44:59.210Z,2.45
2023-05-02T21:47:28.524Z,2.30
2023-05-02T21:49:58.418Z,2.30
2023-05-02T21:52:39.029Z,2.03
2023-05-02T21:55:10.974Z,2.13
2023-05-02T21:57:40.303Z,2.45
2023-05-02T22:00:13.266Z,2.63
2023-05-02T22:02:48.393Z,2.50
2023-05-02T22:05:18.492Z,3.22
2023-05-02T22:07:51.955Z,2.80
2023-05-02T22:10:23.504Z,2.67
2023-05-02T22:12:52.929Z,3.25
2023-05-02T22:15:23.258Z,2.95
2023-05-02T22:18:11.581Z,3.13
2023-05-02T22:20:41.686Z,3.20
2023-05-02T22:23:11.068Z,3.47
2023-05-02T22:25:48.179Z,3.45
2023-05-02T22:28:22.688Z,3.53
2023-05-02T22:33:27.047Z,3.05
2023-05-02T22:36:01.337Z,3.67
2023-05-02T22:38:30.801Z,3.38
2023-05-02T22:41:02.853Z,3.03
2023-05-02T22:43:37.786Z,3.50
2023-05-02T22:46:07.136Z,3.38
2023-05-02T22:48:36.620Z,3.38
2023-05-02T22:51:06.512Z,2.95
2023-05-02T22:53:35.978Z,2.70
2023-05-02T22:56:08.276Z,2.60
2023-05-02T22:58:37.649Z,2.78
2023-05-02T23:01:06.998Z,2.67
2023-05-02T23:06:28.836Z,2.60
2023-05-02T23:08:58.492Z,2.88
2023-05-02T23:11:29.798Z,2.88
2023-05-02T23:13:59.261Z,2.75
2023-05-02T23:16:28.545Z,2.90
2023-05-02T23:19:03.369Z,2.60
2023-05-02T23:21:32.621Z,2.80
2023-05-02T23:24:01.875Z,2.78
2023-05-02T23:26:38.208Z,2.83
2023-05-02T23:29:07.562Z,2.40
2023-05-02T23:31:47.294Z,2.38
2023-05-02T23:34:16.696Z,2.58
2023-05-02T23:36:45.854Z,2.30
2023-05-02T23:39:15.397Z,2.25
2023-05-02T23:41:46.694Z,2.30
2023-05-02T23:44:16.403Z,2.65
2023-05-02T23:46:46.358Z,2.63
2023-05-02T23:49:27.590Z,2.80
2023-05-02T23:51:56.914Z,2.70
2023-05-02T23:54:26.265Z,4.07
2023-05-02T23:57:03.337Z,2.83
2023-05-02T23:59:32.656Z,2.45
